createdAt,value
2022-12-01T00:01:16.112Z,4.50
2022-12-01T00:03:43.011Z,4.50
2022-12-01T00:06:16.000Z,4.50
2022-12-01T00:09:06.857Z,4.50
2022-12-01T00:11:35.876Z,4.50
2022-12-01T00:14:03.636Z,4.50
2022-12-01T00:16:30.941Z,4.50
2022-12-01T00:18:58.360Z,4.50
2022-12-01T00:21:27.136Z,4.50
2022-12-01T00:23:56.447Z,4.50
2022-12-01T00:26:24.001Z,4.50
2022-12-01T00:28:59.402Z,4.50
2022-12-01T00:31:27.120Z,4.50
2022-12-01T00:33:54.375Z,4.50
2022-12-01T00:36:21.884Z,4.50
2022-12-01T00:38:52.492Z,4.50
2022-12-01T00:41:19.323Z,4.50
2022-12-01T00:43:46.134Z,4.50
2022-12-01T00:46:13.056Z,4.50
2022-12-01T00:48:40.233Z,4.50
2022-12-01T00:51:07.087Z,4.50
2022-12-01T00:53:33.946Z,4.50
2022-12-01T00:56:00.850Z,4.50
2022-12-01T00:58:27.749Z,4.50
2022-12-01T01:01:02.360Z,4.50
2022-12-01T01:03:30.557Z,4.50
2022-12-01T01:06:03.352Z,4.50
2022-12-01T01:08:30.239Z,4.50
2022-12-01T01:11:00.488Z,4.40
2022-12-01T01:13:27.786Z,4.40
2022-12-01T01:16:03.305Z,4.40
2022-12-01T01:18:30.903Z,4.40
2022-12-01T01:21:03.556Z,4.40
2022-12-01T01:23:30.971Z,4.40
2022-12-01T01:26:10.796Z,4.50
2022-12-01T01:28:37.646Z,4.50
2022-12-01T01:31:08.456Z,4.50
2022-12-01T01:33:35.899Z,4.50
2022-12-01T01:36:03.775Z,4.50
2022-12-01T01:38:31.262Z,4.50
2022-12-01T01:40:58.339Z,4.40
2022-12-01T01:43:53.067Z,4.50
2022-12-01T01:46:25.940Z,4.50
2022-12-01T01:49:00.459Z,4.40
2022-12-01T01:51:35.359Z,4.40
2022-12-01T01:54:15.677Z,4.40
2022-12-01T01:56:44.623Z,4.40
2022-12-01T01:59:15.362Z,4.50
2022-12-01T02:01:42.264Z,4.40
2022-12-01T02:04:09.492Z,4.50
2022-12-01T02:06:36.334Z,4.40
2022-12-01T02:09:03.213Z,4.40
2022-12-01T02:12:11.752Z,4.40
2022-12-01T02:14:55.774Z,4.40
2022-12-01T02:17:25.322Z,4.40
2022-12-01T02:20:15.877Z,4.40
2022-12-01T02:23:07.161Z,4.40
2022-12-01T02:25:45.935Z,4.40
2022-12-01T02:28:35.479Z,4.30
2022-12-01T02:31:17.700Z,4.20
2022-12-01T02:34:08.478Z,4.30
2022-12-01T02:36:46.135Z,4.40
2022-12-01T02:39:28.025Z,4.30
2022-12-01T02:42:04.072Z,4.30
2022-12-01T02:44:35.688Z,4.30
2022-12-01T02:47:05.506Z,4.30
2022-12-01T02:49:43.099Z,4.30
2022-12-01T02:52:11.667Z,4.20
2022-12-01T02:54:39.562Z,4.20
2022-12-01T02:57:06.452Z,4.20
2022-12-01T02:59:33.305Z,4.20
2022-12-01T03:02:24.639Z,4.20
2022-12-01T03:04:54.524Z,4.30
2022-12-01T03:07:21.369Z,4.30
2022-12-01T03:09:59.907Z,4.20
2022-12-01T03:13:02.315Z,4.20
2022-12-01T03:15:47.269Z,4.20
2022-12-01T03:18:56.331Z,4.10
2022-12-01T03:21:35.776Z,4.10
2022-12-01T03:24:09.147Z,4.00
2022-12-01T03:26:37.884Z,4.10
2022-12-01T03:29:12.945Z,4.10
2022-12-01T03:31:49.022Z,4.10
2022-12-01T03:34:24.511Z,4.10
2022-12-01T03:36:59.217Z,4.10
2022-12-01T03:39:33.024Z,4.20
2022-12-01T03:42:07.716Z,4.10
2022-12-01T03:44:42.006Z,4.20
2022-12-01T03:47:14.717Z,4.20
2022-12-01T03:49:42.631Z,4.20
2022-12-01T03:52:35.548Z,4.10
2022-12-01T03:55:28.339Z,4.10
2022-12-01T03:58:22.459Z,4.10
2022-12-01T04:00:53.373Z,4.10
2022-12-01T04:03:23.491Z,4.10
2022-12-01T04:05:50.391Z,4.10
2022-12-01T04:08:17.812Z,4.10
2022-12-01T04:10:44.722Z,4.10
2022-12-01T04:13:23.034Z,4.10
2022-12-01T04:15:54.134Z,4.10
2022-12-01T04:18:21.943Z,4.10
2022-12-01T04:20:50.478Z,4.10
2022-12-01T04:23:35.952Z,4.10
2022-12-01T04:26:05.036Z,4.20
2022-12-01T04:28:32.033Z,4.20
2022-12-01T04:30:58.926Z,4.10
2022-12-01T04:33:25.890Z,4.10
2022-12-01T04:36:00.093Z,4.10
2022-12-01T04:38:30.926Z,4.10
2022-12-01T04:40:58.165Z,4.10
2022-12-01T04:43:25.055Z,4.10
2022-12-01T04:45:51.869Z,4.10
2022-12-01T04:48:18.747Z,4.10
2022-12-01T04:50:45.612Z,4.10
2022-12-01T04:53:12.432Z,4.20
2022-12-01T04:55:39.523Z,4.20
2022-12-01T04:58:06.931Z,4.10
2022-12-01T05:00:34.242Z,4.10
2022-12-01T05:03:01.388Z,4.10
2022-12-01T05:05:28.354Z,4.10
2022-12-01T05:07:55.325Z,4.20
2022-12-01T05:10:22.714Z,4.10
2022-12-01T05:12:49.909Z,4.10
2022-12-01T05:15:17.531Z,4.20
2022-12-01T05:17:44.667Z,4.20
2022-12-01T05:20:37.384Z,4.10
2022-12-01T05:23:06.039Z,4.10
2022-12-01T05:25:34.239Z,4.10
2022-12-01T05:28:01.129Z,4.10
2022-12-01T05:30:28.959Z,4.10
2022-12-01T05:32:55.970Z,4.10
2022-12-01T05:35:23.080Z,4.10
2022-12-01T05:37:49.908Z,4.10
2022-12-01T05:40:16.765Z,4.20
2022-12-01T05:42:43.579Z,4.10
2022-12-01T05:45:10.775Z,4.10
2022-12-01T05:47:37.648Z,4.10
2022-12-01T05:50:05.944Z,4.10
2022-12-01T05:52:35.293Z,4.10
2022-12-01T05:55:06.867Z,4.10
2022-12-01T05:57:34.032Z,4.10
2022-12-01T06:00:00.907Z,4.10
2022-12-01T06:02:27.830Z,4.10
2022-12-01T06:04:54.626Z,4.10
2022-12-01T06:07:23.574Z,4.10
2022-12-01T06:09:50.873Z,4.10
2022-12-01T06:12:18.241Z,4.10
2022-12-01T06:14:45.251Z,4.10
2022-12-01T06:17:12.101Z,4.10
2022-12-01T06:19:39.556Z,4.10
2022-12-01T06:22:06.413Z,4.10
2022-12-01T06:24:33.219Z,4.10
2022-12-01T06:27:00.040Z,4.10
2022-12-01T06:29:26.875Z,4.10
2022-12-01T06:31:53.756Z,4.20
2022-12-01T06:34:20.674Z,4.20
2022-12-01T06:36:47.555Z,4.10
2022-12-01T06:39:16.665Z,4.10
2022-12-01T06:41:43.773Z,4.20
2022-12-01T06:44:10.987Z,4.20
2022-12-01T06:46:38.061Z,4.20
2022-12-01T06:49:04.993Z,4.20
2022-12-01T06:51:34.291Z,4.20
2022-12-01T06:54:05.431Z,4.20
2022-12-01T06:56:32.575Z,4.20
2022-12-01T06:58:59.850Z,4.20
2022-12-01T07:01:27.237Z,4.20
2022-12-01T07:03:54.859Z,4.20
2022-12-01T07:06:21.899Z,4.20
2022-12-01T07:08:48.945Z,4.20
2022-12-01T07:11:16.492Z,4.20
2022-12-01T07:13:49.336Z,4.20
2022-12-01T07:16:16.482Z,4.20
2022-12-01T07:18:45.149Z,4.20
2022-12-01T07:21:14.867Z,4.20
2022-12-01T07:23:42.140Z,4.20
2022-12-01T07:26:17.294Z,4.20
2022-12-01T07:28:45.056Z,4.20
2022-12-01T07:31:17.225Z,4.20
2022-12-01T07:33:44.515Z,4.20
2022-12-01T07:36:12.185Z,4.30
2022-12-01T07:38:40.106Z,4.20
2022-12-01T07:41:12.876Z,4.30
2022-12-01T07:43:40.569Z,4.30
2022-12-01T07:46:18.762Z,4.30
2022-12-01T07:48:49.379Z,4.30
2022-12-01T07:51:16.902Z,4.30
2022-12-01T07:53:47.780Z,4.30
2022-12-01T07:56:14.961Z,4.40
2022-12-01T07:58:42.404Z,4.40
2022-12-01T08:01:14.461Z,4.40
2022-12-01T08:03:42.486Z,4.40
2022-12-01T08:06:10.078Z,4.50
2022-12-01T08:08:40.869Z,4.50
2022-12-01T08:11:22.011Z,4.60
2022-12-01T08:13:50.069Z,4.60
2022-12-01T08:16:19.269Z,4.60
2022-12-01T08:18:46.708Z,4.60
2022-12-01T08:21:16.074Z,4.60
2022-12-01T08:23:43.750Z,4.70
2022-12-01T08:26:19.274Z,4.70
2022-12-01T08:28:47.423Z,4.70
2022-12-01T08:31:14.253Z,4.80
2022-12-01T08:33:41.084Z,4.80
2022-12-01T08:36:08.210Z,4.80
2022-12-01T08:38:35.147Z,4.80
2022-12-01T08:41:07.805Z,4.90
2022-12-01T08:46:29.342Z,5.10
2022-12-01T08:48:57.667Z,5.20
2022-12-01T08:51:25.086Z,5.40
2022-12-01T08:53:51.945Z,5.60
2022-12-01T08:56:43.527Z,5.80
2022-12-01T08:59:10.379Z,5.90
2022-12-01T09:01:53.132Z,5.90
2022-12-01T09:04:25.344Z,6.00
2022-12-01T09:06:54.128Z,6.10
2022-12-01T09:09:26.667Z,6.10
2022-12-01T09:11:54.030Z,6.20
2022-12-01T09:14:22.477Z,6.20
2022-12-01T09:16:50.607Z,6.30
2022-12-01T09:19:24.088Z,6.30
2022-12-01T09:21:52.548Z,6.60
2022-12-01T09:24:19.488Z,7.30
2022-12-01T09:26:46.375Z,7.40
2022-12-01T09:29:15.117Z,7.40
2022-12-01T09:31:42.794Z,7.50
2022-12-01T09:34:14.301Z,7.50
2022-12-01T09:36:41.330Z,7.60
2022-12-01T09:39:11.970Z,7.80
2022-12-01T09:41:47.460Z,8.00
2022-12-01T09:44:30.379Z,8.60
2022-12-01T09:47:11.829Z,9.00
2022-12-01T09:49:46.357Z,9.90
2022-12-01T09:52:17.241Z,10.20
2022-12-01T09:54:44.598Z,10.30
2022-12-01T09:57:28.451Z,10.50
2022-12-01T09:59:56.532Z,10.50
2022-12-01T10:02:32.254Z,10.10
2022-12-01T10:05:04.168Z,9.90
2022-12-01T10:08:05.762Z,9.90
2022-12-01T10:10:42.311Z,10.10
2022-12-01T10:13:27.159Z,10.10
2022-12-01T10:15:54.009Z,10.00
2022-12-01T10:18:41.902Z,9.80
2022-12-01T10:21:29.019Z,9.90
2022-12-01T10:23:55.788Z,10.10
2022-12-01T10:26:30.270Z,10.50
2022-12-01T10:29:02.716Z,10.80
2022-12-01T10:31:54.561Z,10.80
2022-12-01T10:34:33.347Z,11.10
2022-12-01T10:37:00.653Z,11.20
2022-12-01T10:39:37.589Z,11.40
2022-12-01T10:42:24.683Z,11.50
2022-12-01T10:44:54.460Z,11.80
2022-12-01T10:47:24.031Z,11.40
2022-12-01T10:49:51.359Z,11.20
2022-12-01T10:52:34.078Z,11.00
2022-12-01T10:55:02.507Z,10.90
2022-12-01T10:57:31.293Z,10.90
2022-12-01T11:00:02.122Z,11.20
2022-12-01T11:02:30.815Z,11.60
2022-12-01T11:05:20.808Z,11.90
2022-12-01T11:07:48.214Z,11.80
2022-12-01T11:10:25.878Z,11.90
2022-12-01T11:13:12.842Z,11.80
2022-12-01T11:15:49.015Z,11.70
2022-12-01T11:18:27.808Z,11.80
2022-12-01T11:21:27.802Z,12.10
2022-12-01T11:23:56.252Z,12.10
2022-12-01T11:26:26.489Z,11.80
2022-12-01T11:28:58.315Z,11.50
2022-12-01T11:31:39.404Z,11.10
2022-12-01T11:34:14.851Z,10.70
2022-12-01T11:36:48.639Z,10.60
2022-12-01T11:39:26.677Z,10.30
2022-12-01T11:41:59.417Z,10.10
2022-12-01T11:47:26.395Z,9.80
2022-12-01T11:50:02.144Z,9.70
2022-12-01T11:52:31.969Z,9.90
2022-12-01T11:55:10.983Z,10.10
2022-12-01T11:57:44.243Z,10.30
2022-12-01T12:00:22.338Z,10.80
2022-12-01T12:03:02.213Z,10.90
2022-12-01T12:05:49.095Z,10.90
2022-12-01T12:08:32.778Z,11.00
2022-12-01T12:11:14.316Z,11.10
2022-12-01T12:13:46.975Z,11.00
2022-12-01T12:16:35.035Z,10.90
2022-12-01T12:19:06.139Z,10.90
2022-12-01T12:22:00.335Z,11.00
2022-12-01T12:24:58.303Z,11.00
2022-12-01T12:27:28.107Z,10.80
2022-12-01T12:30:00.826Z,10.60
2022-12-01T12:32:45.316Z,10.60
2022-12-01T12:35:33.375Z,10.90
2022-12-01T12:38:20.398Z,11.30
2022-12-01T12:40:59.315Z,11.50
2022-12-01T12:43:35.096Z,11.70
2022-12-01T12:46:05.099Z,12.10
2022-12-01T12:49:18.159Z,12.20
2022-12-01T12:51:55.732Z,12.10
2022-12-01T12:54:32.628Z,12.00
2022-12-01T12:57:06.750Z,11.80
2022-12-01T12:59:57.831Z,11.50
2022-12-01T13:02:27.444Z,11.20
2022-12-01T13:05:49.714Z,11.10
2022-12-01T13:08:28.671Z,11.00
2022-12-01T13:11:07.499Z,10.70
2022-12-01T13:13:45.035Z,10.60
2022-12-01T13:16:21.083Z,10.40
2022-12-01T13:18:53.972Z,10.30
2022-12-01T13:21:22.538Z,10.20
2022-12-01T13:23:52.251Z,10.00
2022-12-01T13:26:21.213Z,10.00
2022-12-01T13:28:51.768Z,9.90
2022-12-01T13:31:20.709Z,9.80
2022-12-01T13:34:01.942Z,9.80
2022-12-01T13:36:46.403Z,9.70
2022-12-01T13:39:41.429Z,9.70
2022-12-01T13:42:18.194Z,9.70
2022-12-01T13:44:52.286Z,9.70
2022-12-01T13:47:31.086Z,9.50
2022-12-01T13:50:17.963Z,9.30
2022-12-01T13:52:50.467Z,9.30
2022-12-01T13:55:23.204Z,9.20
2022-12-01T13:57:57.270Z,9.10
2022-12-01T14:00:26.167Z,9.10
2022-12-01T14:03:14.899Z,9.00
2022-12-01T14:05:53.694Z,8.90
2022-12-01T14:08:28.146Z,8.80
2022-12-01T14:10:58.674Z,8.70
2022-12-01T14:13:26.976Z,8.70
2022-12-01T14:16:03.426Z,8.60
2022-12-01T14:18:41.388Z,8.60
2022-12-01T14:21:11.475Z,8.60
2022-12-01T14:24:02.828Z,8.50
2022-12-01T14:26:30.989Z,8.50
2022-12-01T14:29:00.835Z,8.50
2022-12-01T14:31:33.494Z,8.50
2022-12-01T14:34:18.751Z,8.50
2022-12-01T14:37:06.035Z,8.40
2022-12-01T14:39:36.313Z,8.40
2022-12-01T14:42:12.055Z,8.40
2022-12-01T14:44:51.559Z,8.30
2022-12-01T14:47:25.668Z,8.20
2022-12-01T14:50:16.628Z,8.20
2022-12-01T14:53:27.890Z,8.10
2022-12-01T14:56:01.805Z,8.10
2022-12-01T14:58:31.372Z,8.00
2022-12-01T15:01:11.042Z,8.00
2022-12-01T15:03:59.184Z,7.90
2022-12-01T15:06:28.423Z,7.90
2022-12-01T15:09:35.579Z,7.80
2022-12-01T15:12:07.751Z,7.80
2022-12-01T15:14:46.868Z,7.70
2022-12-01T15:17:30.251Z,7.60
2022-12-01T15:19:57.216Z,7.60
2022-12-01T15:22:29.702Z,7.50
2022-12-01T15:25:12.881Z,7.40
2022-12-01T15:27:39.882Z,7.40
2022-12-01T15:30:09.634Z,7.30
2022-12-01T15:32:38.352Z,7.30
2022-12-01T15:35:07.498Z,7.30
2022-12-01T15:37:42.634Z,7.30
2022-12-01T15:43:06.319Z,7.20
2022-12-01T15:45:46.188Z,7.20
2022-12-01T15:48:18.615Z,7.20
2022-12-01T15:50:59.088Z,7.20
2022-12-01T15:53:32.903Z,7.10
2022-12-01T15:56:01.999Z,7.10
2022-12-01T15:58:36.388Z,7.10
2022-12-01T16:01:03.228Z,7.10
2022-12-01T16:03:30.683Z,7.10
2022-12-01T16:05:58.475Z,7.10
2022-12-01T16:08:27.951Z,7.00
2022-12-01T16:11:16.186Z,7.00
2022-12-01T16:14:02.616Z,6.90
2022-12-01T16:16:45.235Z,6.90
2022-12-01T16:19:12.067Z,7.00
2022-12-01T16:21:57.290Z,6.90
2022-12-01T16:24:36.447Z,6.90
2022-12-01T16:27:24.552Z,6.90
2022-12-01T16:29:55.935Z,6.90
2022-12-01T16:32:33.124Z,6.80
2022-12-01T16:35:00.274Z,6.80
2022-12-01T16:37:27.922Z,6.80
2022-12-01T16:39:54.791Z,6.80
2022-12-01T16:42:22.654Z,6.80
2022-12-01T16:44:51.339Z,6.80
2022-12-01T16:47:25.384Z,6.80
2022-12-01T16:49:52.805Z,6.80
2022-12-01T16:55:22.378Z,6.80
2022-12-01T16:57:49.233Z,6.80
2022-12-01T17:00:16.465Z,6.80
2022-12-01T17:02:43.343Z,6.80
2022-12-01T17:05:11.614Z,6.70
2022-12-01T17:07:38.579Z,6.70
2022-12-01T17:10:06.060Z,6.60
2022-12-01T17:12:32.994Z,6.60
2022-12-01T17:15:00.232Z,6.50
2022-12-01T17:17:29.172Z,6.40
2022-12-01T17:19:56.419Z,6.40
2022-12-01T17:22:23.636Z,6.30
2022-12-01T17:24:50.959Z,6.30
2022-12-01T17:27:18.163Z,6.20
2022-12-01T17:29:46.446Z,6.20
2022-12-01T17:32:14.556Z,6.20
2022-12-01T17:34:41.475Z,6.10
2022-12-01T17:37:08.296Z,6.10
2022-12-01T17:39:35.174Z,6.00
2022-12-01T17:42:02.007Z,6.00
2022-12-01T17:44:28.910Z,6.10
2022-12-01T17:46:55.805Z,6.00
2022-12-01T17:49:22.830Z,6.10
2022-12-01T17:51:49.796Z,6.10
2022-12-01T17:54:16.765Z,6.00
2022-12-01T17:56:43.930Z,6.00
2022-12-01T17:59:10.890Z,6.00
2022-12-01T18:01:37.918Z,6.00
2022-12-01T18:04:04.944Z,6.00
2022-12-01T18:06:31.759Z,6.00
2022-12-01T18:09:00.535Z,5.90
2022-12-01T18:11:27.447Z,5.90
2022-12-01T18:13:54.726Z,5.90
2022-12-01T18:16:27.774Z,5.90
2022-12-01T18:18:56.571Z,5.80
2022-12-01T18:21:24.454Z,5.90
2022-12-01T18:24:01.094Z,5.90
2022-12-01T18:26:29.606Z,5.80
2022-12-01T18:28:57.730Z,5.80
2022-12-01T18:31:25.010Z,5.80
2022-12-01T18:33:52.256Z,5.80
2022-12-01T18:36:22.395Z,5.80
2022-12-01T18:38:50.990Z,5.80
2022-12-01T18:41:18.966Z,5.70
2022-12-01T18:43:46.579Z,5.80
2022-12-01T18:46:15.539Z,5.70
2022-12-01T18:48:53.346Z,5.80
2022-12-01T18:51:21.252Z,5.80
2022-12-01T18:53:48.314Z,5.70
2022-12-01T18:56:15.584Z,5.70
2022-12-01T18:58:43.073Z,5.70
2022-12-01T19:01:32.029Z,5.80
2022-12-01T19:04:00.127Z,5.80
2022-12-01T19:06:27.768Z,5.80
2022-12-01T19:08:55.163Z,5.80
2022-12-01T19:11:22.316Z,5.70
2022-12-01T19:13:49.302Z,5.70
2022-12-01T19:16:18.949Z,5.70
2022-12-01T19:18:46.169Z,5.70
2022-12-01T19:21:16.737Z,5.70
2022-12-01T19:23:44.999Z,5.70
2022-12-01T19:26:15.167Z,5.70
2022-12-01T19:28:45.376Z,5.70
2022-12-01T19:31:15.367Z,5.70
2022-12-01T19:33:42.306Z,5.70
2022-12-01T19:36:14.827Z,5.60
2022-12-01T19:38:41.867Z,5.60
2022-12-01T19:41:09.303Z,5.60
2022-12-01T19:43:37.510Z,5.60
2022-12-01T19:46:16.161Z,5.60
2022-12-01T19:48:43.778Z,5.50
2022-12-01T19:51:22.441Z,5.50
2022-12-01T19:53:49.871Z,5.40
2022-12-01T19:56:16.734Z,5.50
2022-12-01T19:58:43.655Z,5.40
2022-12-01T20:01:12.755Z,5.40
2022-12-01T20:03:40.770Z,5.40
2022-12-01T20:06:13.281Z,5.40
2022-12-01T20:08:40.569Z,5.40
2022-12-01T20:11:07.772Z,5.40
2022-12-01T20:13:36.389Z,5.40
2022-12-01T20:16:13.907Z,5.40
2022-12-01T20:18:41.705Z,5.40
2022-12-01T20:21:10.085Z,5.40
2022-12-01T20:23:37.427Z,5.40
2022-12-01T20:26:07.124Z,5.40
2022-12-01T20:28:35.975Z,5.30
2022-12-01T20:31:04.471Z,5.30
2022-12-01T20:33:31.325Z,5.30
2022-12-01T20:35:58.137Z,5.40
2022-12-01T20:38:27.666Z,5.40
2022-12-01T20:40:54.920Z,5.40
2022-12-01T20:43:21.896Z,5.40
2022-12-01T20:45:48.806Z,5.40
2022-12-01T20:48:15.866Z,5.40
2022-12-01T20:50:43.082Z,5.40
2022-12-01T20:53:10.595Z,5.40
2022-12-01T20:55:37.914Z,5.40
2022-12-01T20:58:08.670Z,5.40
2022-12-01T21:00:44.161Z,5.40
2022-12-01T21:03:11.799Z,5.40
2022-12-01T21:05:40.808Z,5.40
2022-12-01T21:08:10.425Z,5.40
2022-12-01T21:10:38.849Z,5.40
2022-12-01T21:13:44.020Z,5.30
2022-12-01T21:16:16.680Z,5.30
2022-12-01T21:18:46.905Z,5.40
2022-12-01T21:21:35.334Z,5.40
2022-12-01T21:24:08.361Z,5.30
2022-12-01T21:26:40.918Z,5.30
2022-12-01T21:29:22.836Z,5.30
2022-12-01T21:31:52.517Z,5.30
2022-12-01T21:34:27.484Z,5.30
2022-12-01T21:37:02.055Z,5.30
2022-12-01T21:39:30.469Z,5.20
2022-12-01T21:42:07.069Z,5.20
2022-12-01T21:44:37.616Z,5.20
2022-12-01T21:47:29.987Z,5.20
2022-12-01T21:49:58.492Z,5.20
2022-12-01T21:52:35.412Z,5.20
2022-12-01T21:55:15.396Z,5.10
2022-12-01T21:57:53.682Z,5.10
2022-12-01T22:00:33.851Z,5.10
2022-12-01T22:03:00.675Z,5.10
2022-12-01T22:05:36.554Z,5.10
2022-12-01T22:08:12.709Z,5.10
2022-12-01T22:10:51.715Z,5.10
2022-12-01T22:13:19.762Z,5.10
2022-12-01T22:15:46.655Z,5.10
2022-12-01T22:18:25.467Z,5.10
2022-12-01T22:20:52.828Z,5.10
2022-12-01T22:23:20.910Z,5.10
2022-12-01T22:25:48.440Z,5.10
2022-12-01T22:28:22.203Z,5.10
2022-12-01T22:30:49.038Z,5.10
2022-12-01T22:33:23.721Z,5.10
2022-12-01T22:35:52.769Z,5.10
2022-12-01T22:38:30.539Z,5.10
2022-12-01T22:41:02.446Z,5.10
2022-12-01T22:43:43.107Z,5.10
2022-12-01T22:46:24.470Z,5.00
2022-12-01T22:48:51.642Z,5.00
2022-12-01T22:51:48.414Z,5.00
2022-12-01T22:54:15.223Z,5.00
2022-12-01T22:56:47.871Z,5.00
2022-12-01T22:59:40.464Z,5.00
2022-12-01T23:02:20.533Z,5.00
2022-12-01T23:04:49.474Z,5.00
2022-12-01T23:07:37.093Z,5.00
2022-12-01T23:10:36.059Z,5.00
2022-12-01T23:13:14.021Z,5.00
2022-12-01T23:15:45.601Z,5.00
2022-12-01T23:18:24.240Z,5.00
2022-12-01T23:20:53.620Z,4.90
2022-12-01T23:23:32.065Z,5.00
2022-12-01T23:26:01.315Z,5.00
2022-12-01T23:28:29.938Z,5.00
2022-12-01T23:30:58.864Z,5.00
2022-12-01T23:33:31.441Z,4.90
2022-12-01T23:36:00.155Z,5.00
2022-12-01T23:38:43.571Z,5.00
2022-12-01T23:41:25.092Z,4.90
2022-12-01T23:43:54.050Z,4.90
2022-12-01T23:46:23.262Z,4.90
2022-12-01T23:48:56.612Z,4.90
2022-12-01T23:51:26.835Z,4.90
2022-12-01T23:53:55.632Z,4.90
2022-12-01T23:56:25.551Z,4.90
2022-12-01T23:58:54.529Z,4.90
